createdAt,value
2023-05-05T00:00:22.955Z,99.90
2023-05-05T00:02:53.086Z,99.90
2023-05-05T00:05:25.022Z,99.90
2023-05-05T00:07:54.857Z,99.90
2023-05-05T00:10:24.355Z,99.90
2023-05-05T00:12:53.976Z,99.90
2023-05-05T00:15:23.767Z,99.90
2023-05-05T00:17:53.475Z,99.90
2023-05-05T00:20:24.751Z,99.90
2023-05-05T00:22:54.335Z,99.90
2023-05-05T00:25:24.028Z,99.90
2023-05-05T00:27:53.556Z,99.90
2023-05-05T00:30:23.560Z,99.90
2023-05-05T00:32:53.503Z,99.90
2023-05-05T00:35:25.137Z,99.90
2023-05-05T00:37:54.836Z,99.90
2023-05-05T00:40:25.680Z,99.90
2023-05-05T00:42:55.275Z,99.90
2023-05-05T00:45:25.011Z,99.90
2023-05-05T00:47:56.879Z,99.90
2023-05-05T00:50:29.342Z,99.90
2023-05-05T00:53:02.311Z,99.90
2023-05-05T00:55:32.200Z,99.90
2023-05-05T00:58:03.869Z,99.90
2023-05-05T01:00:33.719Z,99.90
2023-05-05T01:03:03.790Z,99.90
2023-05-05T01:05:42.226Z,99.90
2023-05-05T01:08:25.660Z,99.90
2023-05-05T01:11:01.203Z,99.90
2023-05-05T01:13:39.724Z,99.90
2023-05-05T01:16:15.530Z,99.90
2023-05-05T01:18:52.041Z,99.90
2023-05-05T01:21:28.309Z,99.90
2023-05-05T01:24:22.286Z,99.90
2023-05-05T01:27:03.029Z,99.90
2023-05-05T01:29:48.217Z,97.90
2023-05-05T01:32:24.110Z,99.90
2023-05-05T01:34:59.635Z,99.90
2023-05-05T01:37:34.539Z,99.90
2023-05-05T01:40:08.866Z,99.90
2023-05-05T01:42:40.531Z,99.90
2023-05-05T01:45:13.412Z,99.90
2023-05-05T01:47:47.075Z,99.90
2023-05-05T01:50:18.267Z,99.90
2023-05-05T01:52:48.887Z,99.90
2023-05-05T01:55:21.733Z,99.90
2023-05-05T01:57:53.132Z,99.90
2023-05-05T02:00:23.544Z,99.90
2023-05-05T02:02:59.157Z,99.90
2023-05-05T02:05:29.508Z,99.90
2023-05-05T02:08:01.580Z,99.90
2023-05-05T02:10:32.198Z,99.90
2023-05-05T02:13:03.450Z,99.90
2023-05-05T02:15:34.534Z,99.90
2023-05-05T02:18:09.294Z,99.90
2023-05-05T02:20:40.977Z,99.90
2023-05-05T02:23:10.992Z,99.90
2023-05-05T02:25:44.281Z,99.90
2023-05-05T02:28:20.368Z,99.90
2023-05-05T02:30:56.411Z,99.90
2023-05-05T02:33:29.002Z,99.90
2023-05-05T02:36:00.648Z,99.90
2023-05-05T02:38:32.084Z,99.90
2023-05-05T02:41:04.364Z,99.90
2023-05-05T02:43:35.226Z,99.90
2023-05-05T02:46:04.733Z,99.90
2023-05-05T02:48:35.727Z,99.90
2023-05-05T02:51:05.350Z,99.90
2023-05-05T02:53:35.266Z,99.90
2023-05-05T02:56:12.915Z,99.90
2023-05-05T02:58:50.970Z,99.90
2023-05-05T03:01:34.188Z,99.90
2023-05-05T03:04:10.756Z,99.90
2023-05-05T03:06:45.229Z,96.70
2023-05-05T03:09:23.173Z,99.90
2023-05-05T03:11:56.988Z,99.90
2023-05-05T03:14:32.053Z,99.90
2023-05-05T03:17:04.476Z,99.90
2023-05-05T03:19:37.383Z,99.90
2023-05-05T03:22:07.502Z,99.90
2023-05-05T03:24:37.097Z,91.20
2023-05-05T03:27:06.836Z,80.30
2023-05-05T03:29:36.407Z,96.20
2023-05-05T03:32:06.321Z,99.90
2023-05-05T03:34:38.285Z,99.90
2023-05-05T03:37:07.609Z,99.90
2023-05-05T03:39:37.190Z,99.90
2023-05-05T03:42:06.902Z,99.90
2023-05-05T03:44:36.515Z,99.90
2023-05-05T03:47:06.129Z,99.90
2023-05-05T03:49:37.167Z,99.90
2023-05-05T03:52:07.134Z,99.90
2023-05-05T03:54:37.192Z,99.90
2023-05-05T03:57:06.714Z,99.90
2023-05-05T03:59:36.423Z,99.90
2023-05-05T04:02:06.122Z,99.90
2023-05-05T04:04:37.177Z,99.90
2023-05-05T04:07:06.974Z,99.90
2023-05-05T04:09:36.488Z,99.90
2023-05-05T04:12:06.612Z,99.90
2023-05-05T04:14:36.317Z,99.90
2023-05-05T04:17:06.956Z,99.90
2023-05-05T04:19:37.965Z,99.90
2023-05-05T04:22:07.485Z,99.90
2023-05-05T04:24:36.990Z,99.90
2023-05-05T04:27:06.792Z,99.90
2023-05-05T04:29:36.235Z,99.90
2023-05-05T04:32:06.016Z,99.90
2023-05-05T04:34:38.084Z,99.90
2023-05-05T04:37:08.417Z,99.90
2023-05-05T04:39:38.634Z,99.90
2023-05-05T04:42:08.224Z,99.90
2023-05-05T04:44:38.059Z,99.90
2023-05-05T04:47:07.653Z,99.90
2023-05-05T04:49:39.614Z,99.90
2023-05-05T04:52:09.003Z,99.90
2023-05-05T04:54:39.315Z,99.90
2023-05-05T04:57:09.249Z,99.90
2023-05-05T04:59:38.447Z,99.90
2023-05-05T05:02:08.341Z,99.90
2023-05-05T05:04:40.250Z,99.90
2023-05-05T05:07:09.936Z,99.90
2023-05-05T05:09:39.537Z,99.90
2023-05-05T05:12:10.271Z,39.60
2023-05-05T05:14:40.394Z,5.80
2023-05-05T05:17:09.991Z,1.00
2023-05-05T05:19:41.032Z,1.00
2023-05-05T05:22:10.665Z,1.00
2023-05-05T05:24:40.267Z,1.00
2023-05-05T05:27:10.336Z,1.00
2023-05-05T05:29:40.105Z,1.00
2023-05-05T05:32:09.835Z,1.00
2023-05-05T05:34:41.269Z,1.00
2023-05-05T05:37:10.761Z,1.00
2023-05-05T05:39:43.216Z,1.00
2023-05-05T05:42:13.167Z,1.00
2023-05-05T05:44:42.876Z,1.00
2023-05-05T05:47:12.666Z,1.00
2023-05-05T05:49:43.910Z,1.00
2023-05-05T05:52:13.301Z,1.00
2023-05-05T05:54:42.913Z,1.00
2023-05-05T05:57:12.623Z,1.00
2023-05-05T05:59:42.111Z,1.00
2023-05-05T06:02:11.622Z,1.00
2023-05-05T06:04:41.322Z,1.00
2023-05-05T06:07:12.564Z,1.00
2023-05-05T06:09:42.085Z,1.00
2023-05-05T06:12:11.573Z,1.00
2023-05-05T06:14:40.899Z,1.00
2023-05-05T06:17:10.500Z,1.00
2023-05-05T06:19:41.635Z,1.00
2023-05-05T06:22:12.676Z,1.00
2023-05-05T06:24:42.815Z,1.00
2023-05-05T06:27:12.352Z,1.00
2023-05-05T06:29:42.321Z,1.00
2023-05-05T06:32:13.285Z,1.00
2023-05-05T06:34:45.226Z,1.00
2023-05-05T06:37:16.305Z,1.00
2023-05-05T06:39:47.106Z,1.00
2023-05-05T06:42:16.701Z,1.00
2023-05-05T06:44:46.338Z,1.00
2023-05-05T06:47:16.290Z,1.00
2023-05-05T06:49:45.742Z,1.00
2023-05-05T06:52:17.089Z,1.00
2023-05-05T06:54:46.681Z,1.00
2023-05-05T06:57:16.492Z,1.00
2023-05-05T06:59:45.903Z,1.00
2023-05-05T07:02:15.601Z,1.00
2023-05-05T07:04:45.521Z,1.00
2023-05-05T07:07:17.274Z,1.00
2023-05-05T07:09:47.405Z,1.00
2023-05-05T07:12:17.113Z,1.00
2023-05-05T07:14:48.381Z,1.00
2023-05-05T07:17:17.782Z,1.00
2023-05-05T07:19:47.466Z,1.00
2023-05-05T07:22:18.624Z,1.00
2023-05-05T07:24:49.758Z,1.00
2023-05-05T07:27:19.768Z,1.00
2023-05-05T07:29:49.169Z,1.00
2023-05-05T07:32:18.956Z,1.00
2023-05-05T07:34:48.536Z,1.00
2023-05-05T07:37:19.727Z,1.00
2023-05-05T07:39:49.649Z,1.00
2023-05-05T07:42:21.436Z,1.00
2023-05-05T07:44:54.392Z,1.00
2023-05-05T07:47:25.878Z,1.00
2023-05-05T07:49:55.973Z,1.00
2023-05-05T07:52:43.334Z,1.00
2023-05-05T07:55:14.436Z,1.00
2023-05-05T07:57:44.046Z,1.00
2023-05-05T08:00:15.390Z,1.00
2023-05-05T08:02:45.396Z,1.00
2023-05-05T08:05:15.020Z,1.00
2023-05-05T08:07:46.454Z,1.00
2023-05-05T08:10:16.288Z,1.00
2023-05-05T08:12:46.000Z,1.00
2023-05-05T08:15:15.685Z,1.00
2023-05-05T08:17:49.940Z,1.00
2023-05-05T08:20:20.294Z,1.00
2023-05-05T08:22:52.071Z,1.00
2023-05-05T08:25:23.235Z,1.00
2023-05-05T08:27:53.762Z,1.00
2023-05-05T08:30:23.415Z,1.00
2023-05-05T08:32:53.029Z,1.00
2023-05-05T08:35:22.907Z,1.00
2023-05-05T08:37:56.070Z,1.00
2023-05-05T08:40:34.209Z,1.00
2023-05-05T08:43:04.087Z,1.00
2023-05-05T08:45:33.698Z,1.00
2023-05-05T08:48:05.425Z,1.00
2023-05-05T08:50:35.503Z,1.00
2023-05-05T08:53:13.600Z,1.00
2023-05-05T08:55:52.415Z,1.00
2023-05-05T08:58:23.341Z,1.00
2023-05-05T09:00:53.512Z,1.00
2023-05-05T09:03:23.614Z,1.00
2023-05-05T09:05:53.923Z,1.00
2023-05-05T09:08:25.355Z,1.00
2023-05-05T09:10:57.343Z,1.00
2023-05-05T09:16:13.548Z,1.00
2023-05-05T09:18:43.445Z,1.00
2023-05-05T09:21:23.399Z,1.00
2023-05-05T09:24:11.960Z,1.00
2023-05-05T09:26:44.218Z,1.00
2023-05-05T09:29:20.608Z,1.00
2023-05-05T09:32:06.245Z,1.00
2023-05-05T09:34:37.118Z,1.00
2023-05-05T09:37:07.044Z,1.00
2023-05-05T09:39:38.281Z,1.00
2023-05-05T09:42:09.119Z,1.00
2023-05-05T09:44:40.691Z,1.00
2023-05-05T09:47:22.384Z,1.00
2023-05-05T09:50:02.187Z,1.00
2023-05-05T09:52:32.855Z,1.00
2023-05-05T09:55:04.595Z,1.00
2023-05-05T09:57:35.929Z,1.00
2023-05-05T10:00:06.952Z,1.00
2023-05-05T10:02:38.458Z,1.00
2023-05-05T10:05:10.873Z,1.00
2023-05-05T10:07:41.526Z,1.00
2023-05-05T10:10:14.410Z,1.00
2023-05-05T10:12:45.367Z,1.00
2023-05-05T10:15:17.204Z,1.00
2023-05-05T10:20:23.065Z,1.00
2023-05-05T10:22:54.939Z,1.00
2023-05-05T10:25:32.534Z,1.00
2023-05-05T10:28:02.969Z,1.00
2023-05-05T10:30:33.922Z,1.00
2023-05-05T10:33:30.237Z,1.00
2023-05-05T10:36:03.864Z,1.00
2023-05-05T10:38:35.504Z,1.00
2023-05-05T10:41:07.462Z,1.00
2023-05-05T10:43:37.481Z,1.00
2023-05-05T10:46:08.440Z,1.00
2023-05-05T10:48:43.695Z,1.00
2023-05-05T10:51:39.199Z,1.00
2023-05-05T10:54:18.096Z,1.00
2023-05-05T10:56:50.764Z,1.00
2023-05-05T10:59:42.931Z,1.00
2023-05-05T11:02:24.230Z,1.00
2023-05-05T11:05:11.114Z,1.00
2023-05-05T11:07:41.321Z,1.00
2023-05-05T11:10:12.865Z,1.00
2023-05-05T11:13:24.232Z,1.00
2023-05-05T11:15:54.912Z,1.00
2023-05-05T11:18:39.176Z,1.00
2023-05-05T11:21:20.117Z,1.00
2023-05-05T11:23:51.981Z,1.00
2023-05-05T11:26:52.117Z,1.00
2023-05-05T11:29:23.152Z,1.00
2023-05-05T11:32:13.973Z,1.00
2023-05-05T11:34:52.353Z,1.00
2023-05-05T11:37:25.861Z,1.00
2023-05-05T11:40:05.909Z,1.00
2023-05-05T11:42:35.926Z,1.00
2023-05-05T11:45:23.077Z,1.00
2023-05-05T11:47:52.862Z,1.00
2023-05-05T11:50:24.115Z,1.00
2023-05-05T11:52:53.699Z,1.00
2023-05-05T11:55:25.166Z,1.00
2023-05-05T11:57:54.860Z,1.00
2023-05-05T12:00:36.032Z,1.00
2023-05-05T12:03:06.635Z,1.00
2023-05-05T12:05:37.025Z,1.00
2023-05-05T12:08:07.440Z,1.00
2023-05-05T12:10:37.250Z,1.00
2023-05-05T12:13:06.951Z,1.00
2023-05-05T12:15:38.414Z,1.00
2023-05-05T12:18:08.248Z,1.00
2023-05-05T12:20:37.726Z,1.00
2023-05-05T12:23:08.747Z,1.00
2023-05-05T12:25:40.916Z,1.00
2023-05-05T12:28:11.576Z,1.00
2023-05-05T12:30:43.269Z,1.00
2023-05-05T12:33:13.037Z,1.00
2023-05-05T12:35:43.972Z,1.00
2023-05-05T12:38:13.979Z,1.00
2023-05-05T12:40:53.477Z,1.00
2023-05-05T12:43:30.809Z,1.00
2023-05-05T12:46:10.443Z,1.00
2023-05-05T12:48:41.428Z,1.00
2023-05-05T12:51:19.399Z,1.00
2023-05-05T12:53:49.914Z,1.00
2023-05-05T12:56:33.356Z,1.00
2023-05-05T12:59:03.877Z,1.00
2023-05-05T13:01:36.091Z,1.00
2023-05-05T13:04:13.547Z,1.00
2023-05-05T13:06:45.091Z,1.00
2023-05-05T13:09:26.380Z,1.00
2023-05-05T13:11:57.115Z,1.00
2023-05-05T13:14:26.822Z,1.00
2023-05-05T13:16:58.273Z,1.00
2023-05-05T13:19:28.376Z,1.00
2023-05-05T13:21:58.832Z,1.00
2023-05-05T13:24:42.050Z,1.00
2023-05-05T13:27:13.189Z,1.00
2023-05-05T13:29:44.236Z,1.00
2023-05-05T13:32:15.914Z,1.00
2023-05-05T13:34:46.005Z,1.00
2023-05-05T13:37:15.820Z,1.00
2023-05-05T13:39:45.624Z,1.00
2023-05-05T13:42:15.529Z,1.00
2023-05-05T13:44:45.650Z,1.00
2023-05-05T13:47:16.744Z,1.00
2023-05-05T13:49:46.606Z,1.00
2023-05-05T13:52:16.123Z,1.00
2023-05-05T13:54:45.832Z,1.00
2023-05-05T13:57:15.892Z,1.00
2023-05-05T13:59:46.478Z,1.00
2023-05-05T14:02:17.850Z,1.00
2023-05-05T14:04:47.834Z,1.00
2023-05-05T14:07:17.558Z,1.00
2023-05-05T14:09:47.257Z,1.00
2023-05-05T14:12:16.804Z,1.00
2023-05-05T14:14:47.185Z,1.00
2023-05-05T14:17:18.636Z,1.00
2023-05-05T14:19:48.141Z,1.00
2023-05-05T14:22:17.656Z,1.00
2023-05-05T14:24:48.222Z,1.00
2023-05-05T14:27:17.878Z,1.00
2023-05-05T14:29:47.383Z,1.00
2023-05-05T14:32:19.572Z,1.00
2023-05-05T14:34:50.428Z,1.00
2023-05-05T14:37:20.305Z,1.00
2023-05-05T14:39:49.919Z,1.00
2023-05-05T14:42:19.637Z,1.00
2023-05-05T14:44:49.326Z,1.00
2023-05-05T14:47:20.584Z,1.00
2023-05-05T14:49:50.294Z,1.00
2023-05-05T14:52:19.788Z,1.00
2023-05-05T14:54:49.500Z,1.00
2023-05-05T14:57:19.108Z,1.00
2023-05-05T14:59:52.508Z,1.00
2023-05-05T15:02:23.913Z,1.00
2023-05-05T15:04:53.971Z,1.00
2023-05-05T15:07:28.900Z,1.00
2023-05-05T15:09:58.200Z,1.00
2023-05-05T15:12:28.741Z,1.00
2023-05-05T15:14:58.647Z,1.00
2023-05-05T15:17:31.364Z,1.00
2023-05-05T15:20:00.741Z,1.00
2023-05-05T15:22:30.640Z,1.00
2023-05-05T15:25:00.268Z,1.00
2023-05-05T15:27:31.403Z,1.00
2023-05-05T15:30:01.151Z,1.00
2023-05-05T15:32:32.725Z,1.00
2023-05-05T15:35:02.666Z,1.00
2023-05-05T15:37:32.586Z,1.00
2023-05-05T15:40:02.636Z,1.00
2023-05-05T15:42:35.173Z,1.00
2023-05-05T15:45:05.289Z,1.00
2023-05-05T15:47:36.783Z,1.00
2023-05-05T15:50:08.289Z,1.00
2023-05-05T15:52:38.212Z,1.00
2023-05-05T15:55:09.512Z,1.00
2023-05-05T15:57:40.326Z,1.00
2023-05-05T16:00:11.345Z,1.00
2023-05-05T16:02:42.863Z,1.00
2023-05-05T16:05:12.907Z,1.00
2023-05-05T16:07:43.019Z,1.00
2023-05-05T16:10:13.238Z,1.00
2023-05-05T16:12:42.697Z,1.00
2023-05-05T16:15:13.496Z,1.00
2023-05-05T16:17:44.854Z,1.00
2023-05-05T16:20:15.059Z,1.00
2023-05-05T16:22:44.754Z,1.00
2023-05-05T16:25:13.948Z,1.00
2023-05-05T16:27:43.428Z,1.00
2023-05-05T16:30:15.801Z,1.00
2023-05-05T16:32:48.559Z,1.00
2023-05-05T16:35:18.127Z,1.00
2023-05-05T16:37:49.290Z,1.00
2023-05-05T16:40:19.006Z,1.00
2023-05-05T16:42:48.579Z,1.00
2023-05-05T16:45:18.606Z,1.00
2023-05-05T16:47:50.052Z,1.00
2023-05-05T16:50:19.848Z,1.00
2023-05-05T16:52:49.711Z,1.00
2023-05-05T16:55:19.712Z,1.00
2023-05-05T16:57:49.283Z,1.00
2023-05-05T17:00:19.030Z,1.00
2023-05-05T17:02:50.680Z,1.00
2023-05-05T17:05:20.216Z,1.00
2023-05-05T17:07:50.484Z,1.00
2023-05-05T17:10:19.773Z,1.00
2023-05-05T17:12:49.307Z,1.00
2023-05-05T17:15:18.909Z,1.00
2023-05-05T17:17:50.746Z,1.00
2023-05-05T17:20:20.598Z,1.00
2023-05-05T17:22:50.791Z,1.00
2023-05-05T17:25:20.912Z,1.00
2023-05-05T17:27:51.058Z,1.00
2023-05-05T17:30:21.150Z,1.00
2023-05-05T17:32:52.551Z,1.00
2023-05-05T17:35:22.406Z,1.00
2023-05-05T17:37:52.117Z,1.00
2023-05-05T17:40:22.044Z,1.00
2023-05-05T17:42:51.640Z,1.00
2023-05-05T17:45:21.460Z,1.00
2023-05-05T17:47:52.522Z,1.00
2023-05-05T17:50:22.106Z,1.00
2023-05-05T17:52:51.824Z,1.00
2023-05-05T17:55:22.398Z,1.00
2023-05-05T17:57:52.047Z,1.00
2023-05-05T18:00:25.534Z,1.00
2023-05-05T18:02:56.865Z,1.00
2023-05-05T18:05:26.385Z,1.00
2023-05-05T18:07:56.300Z,1.00
2023-05-05T18:10:26.136Z,1.00
2023-05-05T18:12:55.644Z,1.00
2023-05-05T18:15:25.437Z,1.00
2023-05-05T18:17:59.838Z,1.00
2023-05-05T18:20:29.462Z,1.00
2023-05-05T18:22:59.092Z,1.00
2023-05-05T18:25:28.890Z,1.00
2023-05-05T18:27:59.635Z,1.00
2023-05-05T18:30:29.258Z,1.00
2023-05-05T18:33:00.700Z,1.00
2023-05-05T18:35:31.208Z,1.00
2023-05-05T18:38:00.947Z,1.00
2023-05-05T18:40:30.428Z,1.00
2023-05-05T18:42:59.851Z,1.00
2023-05-05T18:45:29.358Z,1.00
2023-05-05T18:48:00.507Z,1.00
2023-05-05T18:50:30.618Z,1.00
2023-05-05T18:53:00.508Z,1.00
2023-05-05T18:55:30.308Z,1.00
2023-05-05T18:57:59.831Z,1.00
2023-05-05T19:00:29.861Z,1.00
2023-05-05T19:03:01.171Z,1.00
2023-05-05T19:05:31.514Z,1.00
2023-05-05T19:08:01.317Z,1.00
2023-05-05T19:10:30.841Z,1.00
2023-05-05T19:13:01.707Z,1.00
2023-05-05T19:15:31.794Z,1.00
2023-05-05T19:18:05.912Z,1.00
2023-05-05T19:20:35.607Z,1.00
2023-05-05T19:23:05.525Z,1.00
2023-05-05T19:25:35.450Z,1.00
2023-05-05T19:28:04.823Z,1.00
2023-05-05T19:30:34.663Z,1.00
2023-05-05T19:33:06.123Z,1.00
2023-05-05T19:35:36.318Z,1.00
2023-05-05T19:38:06.131Z,1.00
2023-05-05T19:40:36.147Z,1.00
2023-05-05T19:43:06.992Z,1.00
2023-05-05T19:45:37.313Z,1.00
2023-05-05T19:48:10.084Z,1.00
2023-05-05T19:50:40.832Z,1.00
2023-05-05T19:53:10.652Z,1.00
2023-05-05T19:55:40.344Z,1.00
2023-05-05T19:58:10.055Z,1.00
2023-05-05T20:00:39.671Z,1.00
2023-05-05T20:03:11.783Z,1.00
2023-05-05T20:05:43.810Z,1.00
2023-05-05T20:08:13.505Z,1.00
2023-05-05T20:10:42.993Z,1.00
2023-05-05T20:13:12.886Z,1.00
2023-05-05T20:15:42.446Z,1.00
2023-05-05T20:18:13.570Z,1.00
2023-05-05T20:20:43.295Z,1.00
2023-05-05T20:23:12.783Z,1.00
2023-05-05T20:25:42.510Z,1.00
2023-05-05T20:28:12.012Z,1.00
2023-05-05T20:30:41.594Z,1.00
2023-05-05T20:33:12.646Z,1.00
2023-05-05T20:35:42.367Z,1.00
2023-05-05T20:38:11.948Z,1.00
2023-05-05T20:40:42.293Z,1.00
2023-05-05T20:43:12.037Z,1.00
2023-05-05T20:45:41.627Z,1.00
2023-05-05T20:48:12.496Z,1.00
2023-05-05T20:50:42.653Z,1.00
2023-05-05T20:53:14.308Z,1.00
2023-05-05T20:55:43.814Z,1.00
2023-05-05T20:58:13.214Z,1.00
2023-05-05T21:00:42.622Z,1.00
2023-05-05T21:03:13.712Z,1.00
2023-05-05T21:05:43.553Z,1.00
2023-05-05T21:08:13.600Z,1.00
2023-05-05T21:10:44.118Z,1.00
2023-05-05T21:13:13.360Z,1.00
2023-05-05T21:15:43.242Z,1.00
2023-05-05T21:18:14.485Z,1.00
2023-05-05T21:20:44.407Z,1.00
2023-05-05T21:23:13.953Z,1.00
2023-05-05T21:25:43.422Z,1.00
2023-05-05T21:28:12.918Z,1.00
2023-05-05T21:30:42.393Z,1.00
2023-05-05T21:33:13.741Z,1.00
2023-05-05T21:35:43.260Z,1.00
2023-05-05T21:38:13.593Z,1.00
2023-05-05T21:40:44.837Z,1.00
2023-05-05T21:43:14.344Z,1.00
2023-05-05T21:45:43.960Z,1.00
2023-05-05T21:48:14.985Z,1.00
2023-05-05T21:50:44.496Z,1.00
2023-05-05T21:53:14.096Z,1.00
2023-05-05T21:55:43.389Z,1.00
2023-05-05T21:58:12.891Z,1.00
2023-05-05T22:00:42.928Z,1.00
2023-05-05T22:03:13.890Z,1.00
2023-05-05T22:05:43.364Z,1.00
2023-05-05T22:08:12.861Z,1.00
2023-05-05T22:10:42.495Z,1.00
2023-05-05T22:13:12.329Z,1.00
2023-05-05T22:15:46.576Z,1.00
2023-05-05T22:18:18.596Z,1.00
2023-05-05T22:20:48.400Z,1.00
2023-05-05T22:23:17.772Z,1.00
2023-05-05T22:25:47.312Z,1.00
2023-05-05T22:28:16.777Z,1.00
2023-05-05T22:30:46.628Z,1.00
2023-05-05T22:33:18.469Z,1.00
2023-05-05T22:35:47.958Z,1.00
2023-05-05T22:38:17.688Z,1.00
2023-05-05T22:40:47.591Z,1.00
2023-05-05T22:43:17.204Z,1.00
2023-05-05T22:45:46.596Z,1.00
2023-05-05T22:48:17.631Z,1.00
2023-05-05T22:50:47.161Z,1.00
2023-05-05T22:53:16.644Z,1.00
2023-05-05T22:55:46.161Z,1.00
2023-05-05T22:58:15.755Z,1.00
2023-05-05T23:00:45.083Z,1.00
2023-05-05T23:03:14.970Z,1.00
2023-05-05T23:05:46.002Z,1.00
2023-05-05T23:08:15.532Z,1.00
2023-05-05T23:10:45.018Z,1.00
2023-05-05T23:13:14.406Z,1.00
2023-05-05T23:15:44.248Z,1.00
2023-05-05T23:18:13.759Z,1.00
2023-05-05T23:20:43.654Z,1.00
2023-05-05T23:23:14.618Z,1.00
2023-05-05T23:25:44.217Z,1.00
2023-05-05T23:28:13.824Z,1.00
2023-05-05T23:30:43.681Z,1.00
2023-05-05T23:33:13.433Z,1.00
2023-05-05T23:35:43.974Z,1.00
2023-05-05T23:38:15.123Z,1.00
2023-05-05T23:40:44.513Z,1.00
2023-05-05T23:43:14.162Z,1.00
2023-05-05T23:45:43.830Z,1.00
2023-05-05T23:48:14.462Z,1.00
2023-05-05T23:50:44.278Z,1.00
2023-05-05T23:53:15.299Z,1.00
2023-05-05T23:55:44.918Z,1.00
2023-05-05T23:58:14.531Z,1.00
